Station Historical Data
Daily Summary for January 7, 2017 Units:  Metric    English   Both
Next Day »
Daily Weekly Monthly Yearly Custom
  High: Low: Average:
Temperature: 10.4 °C 2.6 °C 7.1 °C
Dew Point: 10 °C 1.3 °C 6.3 °C
Humidity: 97% 86% 95%
Wind Speed: 41.8km/h 0km/h 13.8km/h
Wind Gust: 48.3km/h - -
Wind- - SSE
Pressure: 1021.9 hPa 1015.5 hPa -
Precipitation: 0.25 mm    
Historical Graphs
 
 
Tabular Data for January 7, 2017
Time Temperature Dew Point Pressure Wind Wind Speed Wind Gust Humidity Rainfall Rate (Hourly) solar Conditions
00:02 3.3 °C 1.8 °C 1021.2 hPa Calm     90% 0 mm 0.00 W/m2
00:07 3.3 °C 1.8 °C 1021.2 hPa Calm     90% 0 mm 0.00 W/m2
00:12 3.3 °C 1.8 °C 1021.2 hPa Calm     90% 0 mm 0.00 W/m2
00:17 3.3 °C 1.8 °C 1021.2 hPa Calm     90% 0 mm 0.00 W/m2
00:22 3.3 °C 1.8 °C 1021.2 hPa Calm     90% 0 mm 0.00 W/m2
00:27 3.3 °C 1.8 °C 1021.2 hPa Calm     90% 0 mm 0.00 W/m2
00:32 3.3 °C 1.8 °C 1020.9 hPa Calm     90% 0 mm 0.00 W/m2
00:37 3.3 °C 1.8 °C 1020.9 hPa Calm     90% 0 mm 0.00 W/m2
00:42 3.3 °C 1.9 °C 1021.2 hPa Calm     91% 0 mm 0.00 W/m2
00:47 3.3 °C 1.8 °C 1021.2 hPa Calm     90% 0 mm 0.00 W/m2
00:52 3.3 °C 1.8 °C 1020.9 hPa Calm     90% 0 mm 0.00 W/m2
00:57 3.3 °C 1.8 °C 1021.2 hPa Calm     90% 0 mm 0.00 W/m2
01:02 3.3 °C 1.8 °C 1020.9 hPa Calm     90% 0 mm 0.00 W/m2
01:07 3.3 °C 1.8 °C 1020.9 hPa Calm     90% 0 mm 0.00 W/m2
01:12 3.3 °C 1.7 °C 1020.9 hPa Calm     89% 0 mm 0.00 W/m2
01:17 3.3 °C 1.7 °C 1020.9 hPa Calm     89% 0 mm 0.00 W/m2
01:22 3.3 °C 1.7 °C 1020.9 hPa Calm     89% 0 mm 0.00 W/m2
01:27 3.3 °C 1.7 °C 1020.5 hPa South 1.6 km/h 16.1 km/h 89% 0 mm 0.00 W/m2
01:32 3.3 °C 1.7 °C 1020.2 hPa Calm   1.6 km/h 89% 0 mm 0.00 W/m2
01:37 3.3 °C 1.7 °C 1020.5 hPa Calm   12.9 km/h 89% 0 mm 0.00 W/m2
01:42 3.3 °C 1.7 °C 1020.9 hPa Calm   8 km/h 89% 0 mm 0.00 W/m2
01:47 3.3 °C 1.6 °C 1021.2 hPa Calm   1.6 km/h 88% 0 mm 0.00 W/m2
01:52 3.4 °C 1.3 °C 1020.9 hPa South 16.1 km/h 17.7 km/h 86% 0 mm 0.00 W/m2
01:57 3.6 °C 1.8 °C 1020.9 hPa Calm     88% 0 mm 0.00 W/m2
02:02 3.6 °C 1.7 °C 1021.2 hPa Calm     87% 0 mm 0.00 W/m2
02:07 3.6 °C 1.7 °C 1021.6 hPa Calm   1.6 km/h 87% 0 mm 0.00 W/m2
02:12 3.7 °C 1.9 °C 1021.6 hPa Calm   1.6 km/h 88% 0 mm 0.00 W/m2
02:17 3.7 °C 1.9 °C 1021.9 hPa Calm   1.6 km/h 88% 0 mm 0.00 W/m2
02:22 3.7 °C 2 °C 1021.9 hPa Calm   1.6 km/h 89% 0 mm 0.00 W/m2
02:27 3.7 °C 2 °C 1021.9 hPa Calm     89% 0 mm 0.00 W/m2
02:32 3.6 °C 2.1 °C 1021.6 hPa Calm     90% 0 mm 0.00 W/m2
02:37 3.6 °C 1.9 °C 1021.6 hPa SE 14.5 km/h 32.2 km/h 89% 0 mm 0.00 W/m2
02:42 3.6 °C 1.7 °C 1021.6 hPa South 24.1 km/h 30.6 km/h 87% 0 mm 0.00 W/m2
02:47 3.7 °C 1.6 °C 1021.6 hPa SSE 24.1 km/h 25.7 km/h 86% 0 mm 0.00 W/m2
02:52 3.8 °C 1.7 °C 1021.6 hPa SSE 22.5 km/h 35.4 km/h 86% 0 mm 0.00 W/m2
02:57 3.8 °C 1.7 °C 1021.2 hPa SSE 17.7 km/h 20.9 km/h 86% 0 mm 0.00 W/m2
03:02 3.8 °C 1.9 °C 1020.9 hPa SE 6.4 km/h 24.1 km/h 87% 0 mm 0.00 W/m2
03:07 3.8 °C 1.9 °C 1020.5 hPa SE 16.1 km/h 35.4 km/h 87% 0 mm 0.00 W/m2
03:13 3.8 °C 1.7 °C 1020.5 hPa SE 14.5 km/h 25.7 km/h 86% 0 mm 0.00 W/m2
03:18 3.7 °C 1.6 °C 1020.5 hPa SSE 37 km/h 40.2 km/h 86% 0 mm 0.00 W/m2
03:23 3.8 °C 2 °C 1020.5 hPa SE 16.1 km/h 24.1 km/h 88% 0 mm 0.00 W/m2
03:28 3.7 °C 1.9 °C 1020.5 hPa SE 22.5 km/h 40.2 km/h 88% 0 mm 0.00 W/m2
03:33 3.7 °C 2 °C 1020.2 hPa SSE 24.1 km/h 38.6 km/h 89% 0 mm 0.00 W/m2
03:38 3.6 °C 2.1 °C 1020.2 hPa SSE 14.5 km/h 32.2 km/h 90% 1.02 mm 0.00 W/m2
03:43 3.4 °C 2.1 °C 1019.9 hPa SE 25.7 km/h 29 km/h 91% 1.02 mm 0.00 W/m2
03:48 3.3 °C 2.2 °C 1019.9 hPa SE 14.5 km/h 32.2 km/h 92% 1.02 mm 0.00 W/m2
03:53 3.2 °C 2.1 °C 1019.9 hPa SE 1.6 km/h 30.6 km/h 92% 1.02 mm 0.00 W/m2
03:58 3.2 °C 2 °C 1019.5 hPa SE 17.7 km/h 29 km/h 92% 1.02 mm 0.00 W/m2
04:03 3.1 °C 1.9 °C 1019.5 hPa SE 8 km/h 22.5 km/h 92% 2.03 mm 0.00 W/m2
04:08 3 °C 2 °C 1019.2 hPa SE 20.9 km/h 22.5 km/h 93% 1.78 mm 0.00 W/m2
04:13 2.9 °C 1.9 °C 1018.8 hPa SE 25.7 km/h 25.7 km/h 93% 1.78 mm 0.00 W/m2
04:18 2.8 °C 1.8 °C 1018.5 hPa SE 12.9 km/h 20.9 km/h 93% 1.52 mm 0.00 W/m2
04:23 2.8 °C 1.8 °C 1018.2 hPa ESE 11.3 km/h 22.5 km/h 93% 1.52 mm 0.00 W/m2
04:28 2.7 °C 1.7 °C 1018.2 hPa SE 6.4 km/h 32.2 km/h 93% 1.52 mm 0.00 W/m2
04:33 2.7 °C 1.7 °C 1017.8 hPa ESE 12.9 km/h 20.9 km/h 93% 1.27 mm 0.00 W/m2
04:38 2.7 °C 1.8 °C 1017.5 hPa East 3.2 km/h 29 km/h 94% 1.27 mm 0.00 W/m2
04:43 2.6 °C 1.7 °C 1017.2 hPa ESE 29 km/h 29 km/h 94% 1.02 mm 0.00 W/m2
04:48 2.7 °C 1.8 °C 1017.2 hPa ESE 14.5 km/h 30.6 km/h 94% 0 mm 0.00 W/m2
04:53 2.7 °C 1.8 °C 1017.2 hPa SSE 8 km/h 22.5 km/h 94% 0 mm 0.00 W/m2
04:58 2.7 °C 1.8 °C 1017.2 hPa SE 11.3 km/h 27.4 km/h 94% 0 mm 0.00 W/m2
05:03 2.7 °C 1.8 °C 1016.8 hPa ESE 11.3 km/h 27.4 km/h 94% 0 mm 0.00 W/m2
05:08 2.7 °C 1.8 °C 1016.8 hPa SE 12.9 km/h 30.6 km/h 94% 1.27 mm 0.00 W/m2
05:13 2.7 °C 1.8 °C 1016.8 hPa ESE 9.7 km/h 25.7 km/h 94% 1.27 mm 0.00 W/m2
05:18 2.7 °C 1.8 °C 1016.8 hPa ESE 17.7 km/h 29 km/h 94% 1.27 mm 0.00 W/m2
05:23 2.8 °C 2.1 °C 1016.5 hPa SE 12.9 km/h 33.8 km/h 95% 1.02 mm 0.00 W/m2
05:24 2.8 °C 2.1 °C 1016.5 hPa SE 6.4 km/h 33.8 km/h 95% 1.02 mm 0.00 W/m2
05:29 2.8 °C 2.1 °C 1016.1 hPa SE 19.3 km/h 27.4 km/h 95% 0 mm 0.00 W/m2
05:34 2.8 °C 2.1 °C 1016.1 hPa SE 14.5 km/h 29 km/h 95% 0 mm 0.00 W/m2
05:39 2.8 °C 2.1 °C 1015.8 hPa SE 17.7 km/h 25.7 km/h 95% 0 mm 0.00 W/m2
05:44 2.9 °C 2.2 °C 1015.8 hPa ESE 6.4 km/h 30.6 km/h 95% 0 mm 0.00 W/m2
05:49 2.9 °C 2.2 °C 1015.8 hPa ESE 11.3 km/h 27.4 km/h 95% 0 mm 0.00 W/m2
05:54 2.9 °C 2.2 °C 1015.8 hPa SE 12.9 km/h 27.4 km/h 95% 0 mm 0.00 W/m2
05:59 2.9 °C 2.2 °C 1015.8 hPa SE 14.5 km/h 22.5 km/h 95% 0 mm 0.00 W/m2
06:04 3 °C 2.3 °C 1016.1 hPa SE 8 km/h 22.5 km/h 95% 0 mm 0.00 W/m2
06:09 3.1 °C 2.3 °C 1016.1 hPa SE 14.5 km/h 20.9 km/h 95% 0 mm 0.00 W/m2
06:14 3.1 °C 2.3 °C 1016.1 hPa SE 12.9 km/h 22.5 km/h 95% 0 mm 0.00 W/m2
06:19 3.1 °C 2.4 °C 1016.1 hPa SSE 3.2 km/h 20.9 km/h 95% 0 mm 0.00 W/m2
06:24 3.2 °C 2.4 °C 1016.1 hPa SE 9.7 km/h 20.9 km/h 95% 0 mm 0.00 W/m2
06:29 3.2 °C 2.5 °C 1016.1 hPa SE 12.9 km/h 19.3 km/h 95% 0 mm 0.00 W/m2
06:34 3.2 °C 2.5 °C 1016.1 hPa South 16.1 km/h 24.1 km/h 95% 0 mm 0.00 W/m2
06:39 3.3 °C 2.6 °C 1015.8 hPa SSE 8 km/h 16.1 km/h 95% 0 mm 0.00 W/m2
06:44 3.3 °C 2.6 °C 1015.8 hPa SSE 11.3 km/h 19.3 km/h 95% 0 mm 0.00 W/m2
06:49 3.3 °C 2.6 °C 1015.8 hPa SSE 9.7 km/h 19.3 km/h 95% 0 mm 0.00 W/m2
06:54 3.4 °C 2.7 °C 1015.8 hPa SSE 11.3 km/h 12.9 km/h 95% 0 mm 0.00 W/m2
06:59 3.5 °C 2.8 °C 1015.5 hPa SE 11.3 km/h 14.5 km/h 95% 0 mm 0.00 W/m2
07:04 3.6 °C 2.9 °C 1015.5 hPa SSE 8 km/h 19.3 km/h 95% 0 mm 0.00 W/m2
07:09 3.7 °C 2.9 °C 1015.5 hPa SSE 16.1 km/h 16.1 km/h 95% 0 mm 0.00 W/m2
07:14 3.7 °C 3 °C 1015.5 hPa SSE 9.7 km/h 14.5 km/h 95% 1.52 mm 0.00 W/m2
07:19 3.7 °C 3 °C 1015.5 hPa SSE 12.9 km/h 17.7 km/h 95% 1.52 mm 0.00 W/m2
07:24 3.8 °C 3.1 °C 1015.8 hPa Calm   12.9 km/h 95% 2.29 mm 0.00 W/m2
07:29 3.8 °C 3.1 °C 1015.8 hPa South 11.3 km/h 16.1 km/h 95% 2.29 mm 0.00 W/m2
07:34 3.8 °C 3.1 °C 1015.8 hPa SSE 6.4 km/h 16.1 km/h 95% 2.29 mm 0.00 W/m2
07:39 3.9 °C 3.2 °C 1015.5 hPa SSE 11.3 km/h 12.9 km/h 95% 2.29 mm 5.00 W/m2
07:44 3.9 °C 3.2 °C 1015.8 hPa SE 14.5 km/h 16.1 km/h 95% 2.29 mm 5.00 W/m2
07:49 3.9 °C 3.2 °C 1015.8 hPa South 9.7 km/h 19.3 km/h 95% 2.29 mm 7.00 W/m2
07:54 3.9 °C 3.2 °C 1016.1 hPa SSE 6.4 km/h 17.7 km/h 95% 2.03 mm 5.00 W/m2
07:59 4 °C 3.3 °C 1016.1 hPa Calm   1.6 km/h 95% 1.27 mm 7.00 W/m2
08:04 4.1 °C 3.3 °C 1016.1 hPa South 11.3 km/h 12.9 km/h 95% 3.05 mm 9.00 W/m2
08:09 4.1 °C 3.3 °C 1016.1 hPa Calm   14.5 km/h 95% 3.05 mm 9.00 W/m2
08:14 4.1 °C 3.4 °C 1016.1 hPa South 6.4 km/h 12.9 km/h 95% 1.52 mm 9.00 W/m2
08:19 4.2 °C 3.4 °C 1016.5 hPa South 6.4 km/h 17.7 km/h 95% 1.52 mm 12.00 W/m2
08:24 4.2 °C 3.4 °C 1016.1 hPa SSE 11.3 km/h 22.5 km/h 95% 1.52 mm 12.00 W/m2
08:29 4.2 °C 3.5 °C 1016.1 hPa SSE 12.9 km/h 14.5 km/h 95% 1.02 mm 14.00 W/m2
08:34 4.3 °C 3.6 °C 1016.5 hPa SSE 12.9 km/h 16.1 km/h 95% 0 mm 14.00 W/m2
08:39 4.3 °C 3.6 °C 1016.5 hPa SSE 14.5 km/h 19.3 km/h 95% 0 mm 14.00 W/m2
08:44 4.3 °C 3.6 °C 1016.5 hPa SSE 9.7 km/h 20.9 km/h 95% 0 mm 18.00 W/m2
08:49 4.4 °C 3.7 °C 1016.8 hPa SSE 12.9 km/h 17.7 km/h 95% 0 mm 16.00 W/m2
08:54 4.5 °C 3.8 °C 1016.8 hPa South 16.1 km/h 20.9 km/h 95% 0 mm 18.00 W/m2
08:59 4.6 °C 3.9 °C 1016.8 hPa SSE 19.3 km/h 24.1 km/h 95% 0 mm 25.00 W/m2
09:04 4.7 °C 4 °C 1016.8 hPa SSE 16.1 km/h 29 km/h 95% 0 mm 25.00 W/m2
09:09 4.9 °C 4.2 °C 1016.8 hPa SSE 17.7 km/h 41.8 km/h 95% 0 mm 23.00 W/m2
09:10 5 °C 4.3 °C 1016.8 hPa SSW 11.3 km/h 41.8 km/h 95% 0 mm 19.00 W/m2
09:15 5.3 °C 4.6 °C 1016.8 hPa SSE 12.9 km/h 30.6 km/h 95% 0 mm 23.00 W/m2
09:20 5.6 °C 5 °C 1016.8 hPa SSE 19.3 km/h 30.6 km/h 96% 0 mm 19.00 W/m2
09:25 5.8 °C 5.2 °C 1016.8 hPa South 22.5 km/h 33.8 km/h 96% 0 mm 21.00 W/m2
09:30 6 °C 5.4 °C 1017.2 hPa SSE 1.6 km/h 37 km/h 96% 0 mm 30.00 W/m2
09:35 6.2 °C 5.6 °C 1017.2 hPa South 11.3 km/h 27.4 km/h 96% 0 mm 46.00 W/m2
09:40 6.4 °C 5.8 °C 1017.2 hPa SE 20.9 km/h 38.6 km/h 96% 1.78 mm 28.00 W/m2
09:46 6.6 °C 6 °C 1017.5 hPa South 22.5 km/h 33.8 km/h 96% 1.78 mm 30.00 W/m2
09:51 6.8 °C 6.2 °C 1017.5 hPa South 24.1 km/h 30.6 km/h 96% 1.02 mm 26.00 W/m2
09:56 6.8 °C 6.2 °C 1017.8 hPa South 17.7 km/h 33.8 km/h 96% 0 mm 25.00 W/m2
10:01 7 °C 6.4 °C 1017.8 hPa SSE 19.3 km/h 46.7 km/h 96% 0 mm 28.00 W/m2
10:06 7.2 °C 6.6 °C 1017.8 hPa South 17.7 km/h 37 km/h 96% 0 mm 47.00 W/m2
10:11 7.3 °C 6.7 °C 1017.8 hPa SSE 24.1 km/h 41.8 km/h 96% 1.52 mm 35.00 W/m2
10:16 7.4 °C 6.8 °C 1017.8 hPa South 22.5 km/h 25.7 km/h 96% 1.52 mm 35.00 W/m2
10:21 7.5 °C 6.9 °C 1017.8 hPa SSE 20.9 km/h 33.8 km/h 96% 1.52 mm 46.00 W/m2
10:26 7.6 °C 7 °C 1017.8 hPa SSE 16.1 km/h 41.8 km/h 96% 1.02 mm 32.00 W/m2
10:31 7.7 °C 7.1 °C 1017.8 hPa South 16.1 km/h 33.8 km/h 96% 1.02 mm 37.00 W/m2
10:36 7.8 °C 7.2 °C 1018.2 hPa SSE 9.7 km/h 45.1 km/h 96% 1.52 mm 33.00 W/m2
10:41 7.9 °C 7.3 °C 1018.2 hPa South 24.1 km/h 40.2 km/h 96% 1.52 mm 37.00 W/m2
10:46 8 °C 7.4 °C 1018.2 hPa SSE 9.7 km/h 41.8 km/h 96% 1.52 mm 40.00 W/m2
10:51 8.1 °C 7.5 °C 1018.2 hPa SSE 29 km/h 46.7 km/h 96% 1.02 mm 46.00 W/m2
10:56 8.2 °C 7.6 °C 1018.2 hPa SSW 32.2 km/h 40.2 km/h 96% 1.02 mm 39.00 W/m2
11:01 8.3 °C 7.7 °C 1018.2 hPa SE 14.5 km/h 43.5 km/h 96% 1.02 mm 44.00 W/m2
11:06 8.3 °C 7.7 °C 1018.2 hPa South 11.3 km/h 41.8 km/h 96% 1.02 mm 47.00 W/m2
11:11 8.4 °C 7.8 °C 1017.8 hPa SW 20.9 km/h 45.1 km/h 96% 0 mm 53.00 W/m2
11:16 8.4 °C 7.8 °C 1018.2 hPa South 40.2 km/h 48.3 km/h 96% 0 mm 37.00 W/m2
11:21 8.6 °C 7.9 °C 1017.8 hPa SSE 24.1 km/h 43.5 km/h 96% 0 mm 65.00 W/m2
11:26 8.6 °C 8 °C 1018.2 hPa SSE 22.5 km/h 38.6 km/h 96% 1.27 mm 40.00 W/m2
11:31 8.7 °C 8.1 °C 1017.8 hPa SSE 6.4 km/h 41.8 km/h 96% 1.27 mm 44.00 W/m2
11:36 8.7 °C 8.1 °C 1018.2 hPa South 8 km/h 38.6 km/h 96% 1.27 mm 49.00 W/m2
11:41 8.7 °C 8.1 °C 1017.8 hPa South 17.7 km/h 35.4 km/h 96% 1.27 mm 58.00 W/m2
11:46 8.8 °C 8.2 °C 1017.8 hPa South 9.7 km/h 48.3 km/h 96% 1.02 mm 46.00 W/m2
11:51 8.8 °C 8.2 °C 1017.8 hPa SSE 40.2 km/h 41.8 km/h 96% 3.81 mm 53.00 W/m2
11:56 8.8 °C 8.2 °C 1017.5 hPa South 30.6 km/h 45.1 km/h 96% 3.05 mm 58.00 W/m2
12:01 8.9 °C 8.3 °C 1017.8 hPa SSE 17.7 km/h 43.5 km/h 96% 2.29 mm 51.00 W/m2
12:06 8.9 °C 8.3 °C 1017.8 hPa South 38.6 km/h 38.6 km/h 96% 1.78 mm 44.00 W/m2
12:11 9 °C 8.4 °C 1017.5 hPa South 30.6 km/h 37 km/h 96% 1.52 mm 56.00 W/m2
12:16 9.1 °C 8.4 °C 1017.2 hPa SW 22.5 km/h 30.6 km/h 96% 1.52 mm 63.00 W/m2
12:21 9.1 °C 8.4 °C 1017.2 hPa South 37 km/h 37 km/h 96% 1.02 mm 47.00 W/m2
12:26 9.1 °C 8.5 °C 1016.8 hPa SSE 11.3 km/h 11.3 km/h 96% 0 mm 58.00 W/m2
12:31 9.2 °C 8.6 °C 1016.8 hPa South 22.5 km/h 22.5 km/h 96% 0 mm 81.00 W/m2
12:36 9.2 °C 8.6 °C 1016.5 hPa South 29 km/h 29 km/h 96% 0 mm 102.00 W/m2
12:41 9.2 °C 8.6 °C 1016.5 hPa SSE 19.3 km/h 19.3 km/h 96% 0 mm 58.00 W/m2
12:46 9.3 °C 8.7 °C 1016.5 hPa SE 24.1 km/h 24.1 km/h 96% 1.02 mm 56.00 W/m2
12:51 9.3 °C 8.7 °C 1016.8 hPa South 33.8 km/h 40.2 km/h 96% 2.29 mm 69.00 W/m2
12:56 9.3 °C 8.7 °C 1016.5 hPa SSE 14.5 km/h 17.7 km/h 96% 2.29 mm 84.00 W/m2
13:01 9.3 °C 8.7 °C 1016.5 hPa SSW 11.3 km/h 16.1 km/h 96% 1.27 mm 42.00 W/m2
13:06 9.4 °C 8.8 °C 1016.8 hPa SSE 17.7 km/h 19.3 km/h 96% 1.02 mm 49.00 W/m2
13:11 9.4 °C 8.8 °C 1016.8 hPa South 19.3 km/h 22.5 km/h 96% 2.29 mm 63.00 W/m2
13:16 9.4 °C 8.8 °C 1017.2 hPa SE 20.9 km/h 33.8 km/h 96% 2.29 mm 77.00 W/m2
13:21 9.4 °C 8.8 °C 1016.8 hPa South 17.7 km/h 17.7 km/h 96% 1.52 mm 121.00 W/m2
13:26 9.5 °C 8.9 °C 1016.8 hPa SSW 25.7 km/h 32.2 km/h 96% 1.52 mm 62.00 W/m2
13:31 9.5 °C 8.9 °C 1016.8 hPa South 19.3 km/h 24.1 km/h 96% 1.27 mm 49.00 W/m2
13:36 9.5 °C 8.9 °C 1016.8 hPa South 22.5 km/h 22.5 km/h 96% 1.02 mm 63.00 W/m2
13:41 9.5 °C 8.9 °C 1016.8 hPa South 17.7 km/h 17.7 km/h 96% 1.02 mm 54.00 W/m2
13:46 9.6 °C 8.9 °C 1017.2 hPa SSE 17.7 km/h 20.9 km/h 96% 1.02 mm 58.00 W/m2
13:51 9.6 °C 8.9 °C 1017.2 hPa South 11.3 km/h 16.1 km/h 96% 1.02 mm 58.00 W/m2
13:56 9.6 °C 9 °C 1017.2 hPa South 30.6 km/h 35.4 km/h 96% 0 mm 76.00 W/m2
14:01 9.7 °C 9.1 °C 1017.2 hPa SSE 17.7 km/h 19.3 km/h 96% 0 mm 53.00 W/m2
14:06 9.7 °C 9.1 °C 1017.2 hPa South 29 km/h 29 km/h 96% 0 mm 47.00 W/m2
14:11 9.7 °C 9.1 °C 1017.5 hPa SSW 25.7 km/h 37 km/h 96% 0 mm 54.00 W/m2
14:16 9.8 °C 9.2 °C 1017.2 hPa South 20.9 km/h 35.4 km/h 96% 8.38 mm 62.00 W/m2
14:21 9.8 °C 9.2 °C 1017.5 hPa South 9.7 km/h 11.3 km/h 96% 22.86 mm 58.00 W/m2
14:26 9.8 °C 9.2 °C 1017.5 hPa SE 24.1 km/h 25.7 km/h 96% 4.32 mm 83.00 W/m2
14:31 9.8 °C 9.2 °C 1017.5 hPa South 12.9 km/h 24.1 km/h 96% 1.78 mm 58.00 W/m2
14:36 9.9 °C 9.3 °C 1017.5 hPa South 11.3 km/h 12.9 km/h 96% 1.02 mm 56.00 W/m2
14:41 9.9 °C 9.3 °C 1017.5 hPa SSE 24.1 km/h 30.6 km/h 96% 0 mm 65.00 W/m2
14:46 9.9 °C 9.3 °C 1017.5 hPa SSE 27.4 km/h 27.4 km/h 96% 0 mm 58.00 W/m2
14:51 9.9 °C 9.3 °C 1017.5 hPa SSE 16.1 km/h 17.7 km/h 96% 0 mm 53.00 W/m2
14:56 9.9 °C 9.3 °C 1017.5 hPa SSE 16.1 km/h 19.3 km/h 96% 0 mm 42.00 W/m2
15:01 9.9 °C 9.3 °C 1017.8 hPa South 8 km/h 12.9 km/h 96% 0 mm 44.00 W/m2
15:06 9.9 °C 9.3 °C 1017.8 hPa South 20.9 km/h 27.4 km/h 96% 0 mm 54.00 W/m2
15:11 9.9 °C 9.3 °C 1017.8 hPa SSE 30.6 km/h 30.6 km/h 96% 0 mm 35.00 W/m2
15:16 10 °C 9.4 °C 1018.2 hPa SSE 14.5 km/h 14.5 km/h 96% 0 mm 33.00 W/m2
15:21 9.9 °C 9.3 °C 1018.2 hPa SSW 16.1 km/h 27.4 km/h 96% 0 mm 23.00 W/m2
15:26 9.9 °C 9.3 °C 1018.2 hPa South 11.3 km/h 16.1 km/h 96% 0 mm 32.00 W/m2
15:31 9.9 °C 9.3 °C 1018.2 hPa SSE 16.1 km/h 17.7 km/h 96% 0 mm 25.00 W/m2
15:36 9.9 °C 9.3 °C 1018.5 hPa South 6.4 km/h 30.6 km/h 96% 0 mm 19.00 W/m2
15:41 9.9 °C 9.3 °C 1018.5 hPa South 17.7 km/h 20.9 km/h 96% 0 mm 18.00 W/m2
15:46 9.9 °C 9.3 °C 1018.2 hPa SW 6.4 km/h 19.3 km/h 96% 0 mm 16.00 W/m2
15:51 9.9 °C 9.3 °C 1018.5 hPa SSE 19.3 km/h 33.8 km/h 96% 0 mm 14.00 W/m2
15:56 9.9 °C 9.3 °C 1018.5 hPa South 9.7 km/h 27.4 km/h 96% 0 mm 14.00 W/m2
16:01 9.9 °C 9.3 °C 1018.5 hPa SE 29 km/h 29 km/h 96% 0 mm 16.00 W/m2
16:06 9.9 °C 9.3 °C 1018.5 hPa SSE 41.8 km/h 41.8 km/h 96% 0 mm 12.00 W/m2
16:11 9.9 °C 9.3 °C 1018.5 hPa SSW 17.7 km/h 30.6 km/h 96% 0 mm 21.00 W/m2
16:16 9.9 °C 9.3 °C 1018.8 hPa South 14.5 km/h 30.6 km/h 96% 0 mm 12.00 W/m2
16:21 9.9 °C 9.3 °C 1018.8 hPa SSE 12.9 km/h 25.7 km/h 96% 0 mm 11.00 W/m2
16:26 9.9 °C 9.3 °C 1018.5 hPa South 14.5 km/h 35.4 km/h 96% 0 mm 7.00 W/m2
16:32 10 °C 9.4 °C 1018.8 hPa SSW 6.4 km/h 14.5 km/h 96% 0 mm 5.00 W/m2
16:37 10 °C 9.4 °C 1018.8 hPa SSW 22.5 km/h 29 km/h 96% 0 mm 5.00 W/m2
16:47 10 °C 9.4 °C 1018.8 hPa SSE 11.3 km/h 20.9 km/h 96% 0 mm 0.00 W/m2
16:52 10 °C 9.4 °C 1018.8 hPa South 27.4 km/h 30.6 km/h 96% 1.27 mm 0.00 W/m2
16:57 10 °C 9.4 °C 1018.5 hPa South 12.9 km/h 33.8 km/h 96% 1.27 mm 0.00 W/m2
17:02 10 °C 9.4 °C 1018.8 hPa SW 11.3 km/h 27.4 km/h 96% 1.27 mm 0.00 W/m2
17:07 10.1 °C 9.4 °C 1018.8 hPa SSW 8 km/h 30.6 km/h 96% 0 mm 0.00 W/m2
17:12 10.1 °C 9.4 °C 1018.8 hPa South 32.2 km/h 33.8 km/h 96% 0 mm 0.00 W/m2
17:17 10.1 °C 9.4 °C 1019.2 hPa South 20.9 km/h 20.9 km/h 96% 0 mm 0.00 W/m2
17:22 10.1 °C 9.5 °C 1019.2 hPa SSE 14.5 km/h 24.1 km/h 96% 0 mm 0.00 W/m2
17:27 10.1 °C 9.5 °C 1019.2 hPa SSW 3.2 km/h 14.5 km/h 96% 0 mm 0.00 W/m2
17:32 10.1 °C 9.5 °C 1019.2 hPa SSE 20.9 km/h 27.4 km/h 96% 0 mm 0.00 W/m2
17:37 10.1 °C 9.5 °C 1019.2 hPa South 9.7 km/h 25.7 km/h 96% 0 mm 0.00 W/m2
17:42 10.1 °C 9.5 °C 1019.2 hPa SSW 20.9 km/h 20.9 km/h 96% 0 mm 0.00 W/m2
17:47 10.2 °C 9.6 °C 1019.5 hPa SSE 12.9 km/h 19.3 km/h 96% 0 mm 0.00 W/m2
17:52 10.1 °C 9.5 °C 1019.5 hPa South 24.1 km/h 24.1 km/h 96% 0 mm 0.00 W/m2
17:57 10.1 °C 9.5 °C 1019.5 hPa SSE 11.3 km/h 19.3 km/h 96% 1.27 mm 0.00 W/m2
18:02 10.1 °C 9.5 °C 1019.5 hPa SSE 17.7 km/h 19.3 km/h 96% 1.27 mm 0.00 W/m2
18:07 10.2 °C 9.6 °C 1019.5 hPa SSE 9.7 km/h 22.5 km/h 96% 1.02 mm 0.00 W/m2
18:12 10.1 °C 9.5 °C 1019.5 hPa South 17.7 km/h 22.5 km/h 96% 0 mm 0.00 W/m2
18:17 10.1 °C 9.5 °C 1019.5 hPa SSW 11.3 km/h 20.9 km/h 96% 0 mm 0.00 W/m2
18:22 10.1 °C 9.5 °C 1019.5 hPa SSE 14.5 km/h 22.5 km/h 96% 0 mm 0.00 W/m2
18:27 10.1 °C 9.5 °C 1019.5 hPa South 11.3 km/h 11.3 km/h 96% 0 mm 0.00 W/m2
18:32 10.1 °C 9.5 °C 1019.5 hPa SE 19.3 km/h 20.9 km/h 96% 0 mm 0.00 W/m2
18:37 10.1 °C 9.5 °C 1019.5 hPa South 17.7 km/h 19.3 km/h 96% 0 mm 0.00 W/m2
18:42 10.1 °C 9.5 °C 1019.5 hPa SSE 8 km/h 14.5 km/h 96% 0 mm 0.00 W/m2
18:47 10.1 °C 9.5 °C 1019.9 hPa SSW 17.7 km/h 30.6 km/h 96% 0 mm 0.00 W/m2
18:52 10.1 °C 9.5 °C 1019.9 hPa SSE 17.7 km/h 25.7 km/h 96% 0 mm 0.00 W/m2
18:57 10.1 °C 9.5 °C 1019.9 hPa SSE 14.5 km/h 25.7 km/h 96% 0 mm 0.00 W/m2
19:02 10.1 °C 9.5 °C 1019.9 hPa SSW 16.1 km/h 22.5 km/h 96% 0 mm 0.00 W/m2
19:07 10.1 °C 9.5 °C 1019.9 hPa SW 8 km/h 27.4 km/h 96% 0 mm 0.00 W/m2
19:12 10.1 °C 9.5 °C 1019.9 hPa South 6.4 km/h 19.3 km/h 96% 13.72 mm 0.00 W/m2
19:17 10.1 °C 9.5 °C 1019.9 hPa SE 17.7 km/h 20.9 km/h 96% 6.6 mm 0.00 W/m2
19:22 10.1 °C 9.5 °C 1019.9 hPa South 12.9 km/h 19.3 km/h 96% 3.3 mm 0.00 W/m2
19:27 10.1 °C 9.5 °C 1019.9 hPa Calm   9.7 km/h 96% 6.86 mm 0.00 W/m2
19:32 10.1 °C 9.5 °C 1019.9 hPa SSW 8 km/h 22.5 km/h 96% 3.05 mm 0.00 W/m2
19:37 10.1 °C 9.5 °C 1019.9 hPa SSW 6.4 km/h 12.9 km/h 96% 5.33 mm 0.00 W/m2
19:42 10.1 °C 9.4 °C 1019.9 hPa SSE 17.7 km/h 30.6 km/h 96% 4.57 mm 0.00 W/m2
19:47 10.1 °C 9.4 °C 1019.9 hPa SSE 17.7 km/h 33.8 km/h 96% 2.03 mm 0.00 W/m2
19:53 10.1 °C 9.4 °C 1019.9 hPa South 16.1 km/h 27.4 km/h 96% 1.27 mm 0.00 W/m2
19:58 10.1 °C 9.4 °C 1019.9 hPa South 17.7 km/h 25.7 km/h 96% 0 mm 0.00 W/m2
20:03 10.1 °C 9.4 °C 1019.9 hPa South 4.8 km/h 20.9 km/h 96% 0 mm 0.00 W/m2
20:08 10.1 °C 9.4 °C 1019.9 hPa South 9.7 km/h 25.7 km/h 96% 0 mm 0.00 W/m2
20:13 10.1 °C 9.4 °C 1019.9 hPa South 12.9 km/h 27.4 km/h 96% 0 mm 0.00 W/m2
20:23 10.1 °C 9.4 °C 1019.9 hPa SSE 8 km/h 20.9 km/h 96% 0 mm 0.00 W/m2
20:28 10.1 °C 9.4 °C 1019.9 hPa South 16.1 km/h 24.1 km/h 96% 0 mm 0.00 W/m2
20:33 10.1 °C 9.4 °C 1020.2 hPa Calm   16.1 km/h 96% 0 mm 0.00 W/m2
20:38 10.1 °C 9.4 °C 1019.9 hPa South 4.8 km/h 30.6 km/h 96% 0 mm 0.00 W/m2
20:43 10.1 °C 9.4 °C 1020.2 hPa SSE 9.7 km/h 19.3 km/h 96% 0 mm 0.00 W/m2
20:48 10.1 °C 9.5 °C 1020.2 hPa South 12.9 km/h 24.1 km/h 96% 0 mm 0.00 W/m2
20:53 10.1 °C 9.5 °C 1020.2 hPa SSE 14.5 km/h 22.5 km/h 96% 0 mm 0.00 W/m2
20:58 10.1 °C 9.5 °C 1020.2 hPa SSE 12.9 km/h 25.7 km/h 96% 0 mm 0.00 W/m2
21:03 10.1 °C 9.5 °C 1020.2 hPa SSE 9.7 km/h 19.3 km/h 96% 0 mm 0.00 W/m2
21:08 10.1 °C 9.5 °C 1020.2 hPa South 14.5 km/h 22.5 km/h 96% 0 mm 0.00 W/m2
21:13 10.1 °C 9.5 °C 1020.2 hPa SSE 22.5 km/h 29 km/h 96% 0 mm 0.00 W/m2
21:18 10.2 °C 9.6 °C 1019.9 hPa SSE 8 km/h 27.4 km/h 96% 0 mm 0.00 W/m2
21:23 10.2 °C 9.6 °C 1019.9 hPa SSE 9.7 km/h 24.1 km/h 96% 0 mm 0.00 W/m2
21:28 10.2 °C 9.6 °C 1019.9 hPa SSE 20.9 km/h 27.4 km/h 96% 0 mm 0.00 W/m2
21:33 10.2 °C 9.6 °C 1019.9 hPa SE 14.5 km/h 22.5 km/h 96% 0 mm 0.00 W/m2
21:38 10.2 °C 9.6 °C 1019.9 hPa South 12.9 km/h 29 km/h 96% 0 mm 0.00 W/m2
21:43 10.2 °C 9.6 °C 1019.9 hPa South 9.7 km/h 20.9 km/h 96% 0 mm 0.00 W/m2
21:48 10.2 °C 9.6 °C 1019.9 hPa South 17.7 km/h 24.1 km/h 96% 1.02 mm 0.00 W/m2
21:53 10.2 °C 9.6 °C 1020.2 hPa South 12.9 km/h 20.9 km/h 96% 1.02 mm 0.00 W/m2
21:58 10.2 °C 9.6 °C 1020.2 hPa South 12.9 km/h 22.5 km/h 96% 1.52 mm 0.00 W/m2
22:03 10.2 °C 9.6 °C 1020.2 hPa South 14.5 km/h 17.7 km/h 96% 1.52 mm 0.00 W/m2
22:08 10.2 °C 9.6 °C 1020.2 hPa South 6.4 km/h 20.9 km/h 96% 1.78 mm 0.00 W/m2
22:13 10.2 °C 9.6 °C 1020.2 hPa South 20.9 km/h 25.7 km/h 96% 2.54 mm 0.00 W/m2
22:18 10.2 °C 9.6 °C 1020.2 hPa South 11.3 km/h 30.6 km/h 96% 2.54 mm 0.00 W/m2
22:23 10.2 °C 9.6 °C 1020.2 hPa SE 12.9 km/h 25.7 km/h 96% 1.78 mm 0.00 W/m2
22:28 10.3 °C 9.7 °C 1020.2 hPa SSE 12.9 km/h 29 km/h 96% 2.54 mm 0.00 W/m2
22:33 10.3 °C 9.7 °C 1020.2 hPa ESE 22.5 km/h 25.7 km/h 96% 2.54 mm 0.00 W/m2
22:43 10.3 °C 9.7 °C 1020.2 hPa South 19.3 km/h 25.7 km/h 96% 1.78 mm 0.00 W/m2
22:48 10.3 °C 9.7 °C 1020.2 hPa South 17.7 km/h 24.1 km/h 96% 7.11 mm 0.00 W/m2
22:53 10.3 °C 9.7 °C 1020.2 hPa South 9.7 km/h 17.7 km/h 96% 4.06 mm 0.00 W/m2
22:58 10.3 °C 9.7 °C 1019.9 hPa South 9.7 km/h 27.4 km/h 96% 2.54 mm 0.00 W/m2
23:03 10.3 °C 9.7 °C 1019.9 hPa SSE 20.9 km/h 20.9 km/h 96% 2.03 mm 0.00 W/m2
23:08 10.3 °C 9.7 °C 1019.5 hPa South 9.7 km/h 22.5 km/h 96% 1.27 mm 0.00 W/m2
23:13 10.3 °C 9.7 °C 1019.5 hPa SE 9.7 km/h 30.6 km/h 96% 1.27 mm 0.00 W/m2
23:18 10.3 °C 9.8 °C 1019.2 hPa SE 9.7 km/h 27.4 km/h 97% 1.27 mm 0.00 W/m2
23:23 10.3 °C 9.9 °C 1019.2 hPa SSE 9.7 km/h 22.5 km/h 97% 1.02 mm 0.00 W/m2
23:28 10.3 °C 9.7 °C 1019.2 hPa SSE 11.3 km/h 29 km/h 96% 1.02 mm 0.00 W/m2
23:33 10.3 °C 9.9 °C 1019.2 hPa SE 14.5 km/h 32.2 km/h 97% 1.02 mm 0.00 W/m2
23:38 10.3 °C 9.9 °C 1019.2 hPa South 19.3 km/h 25.7 km/h 97% 1.02 mm 0.00 W/m2
23:43 10.3 °C 9.9 °C 1019.5 hPa South 17.7 km/h 29 km/h 97% 0 mm 0.00 W/m2
23:48 10.4 °C 9.9 °C 1019.2 hPa South 9.7 km/h 38.6 km/h 97% 2.29 mm 0.00 W/m2
23:53 10.4 °C 10 °C 1019.2 hPa SSE 22.5 km/h 35.4 km/h 97% 3.56 mm 0.00 W/m2
23:58 10.4 °C 10 °C 1019.5 hPa SSW 11.3 km/h 25.7 km/h 97% 4.57 mm 0.00 W/m2
Foresthill Weather
 WU-history PHP script courtesy of   Juneau County Weather.
powered by Cumulus v1.9.3 (1059)
Ambient Weather VWS v14.00
Top Contact Website Map Copyright © 2007 - 2018 Foresthillweather.com Never base important decisions on this or any weather information obtained from the Internet